Time;durP1;ratioP1;P1;durP2;ratioP2;P2;SDS_P1;SDS_P2;PMS_P1;PMS_P2;Temp;Humidity;BMP_temperature;BMP_pressure;BME280_temperature;BME280_humidity;BME280_pressure;Samples;Min_cycle;Max_cycle;Signal;HPM_P1;HPM_P2
2021/01/25 00:00:22;;;;;;;3.50;2.80;;;1.20;99.90;;;;;;492797;241;27515;-70
2021/01/25 00:02:23;;;;;;;3.08;2.80;;;1.20;99.90;;;;;;492884;241;27391;-69
2021/01/25 00:04:24;;;;;;;3.17;2.85;;;1.20;99.90;;;;;;492927;241;27436;-70
2021/01/25 00:06:25;;;;;;;2.58;2.30;;;1.20;99.90;;;;;;492929;241;27373;-69
2021/01/25 00:08:27;;;;;;;5.12;2.70;;;1.20;99.90;;;;;;492984;241;27540;-69
2021/01/25 00:10:28;;;;;;;5.57;3.17;;;1.20;99.90;;;;;;492980;241;27409;-70
2021/01/25 00:12:29;;;;;;;2.97;2.67;;;1.20;99.90;;;;;;493039;241;27414;-69
2021/01/25 00:14:30;;;;;;;4.00;2.95;;;1.20;99.90;;;;;;493012;241;27972;-70
2021/01/25 00:16:32;;;;;;;5.05;2.70;;;1.20;99.90;;;;;;492969;241;27838;-69
2021/01/25 00:18:33;;;;;;;4.05;2.60;;;1.30;99.90;;;;;;492959;241;27887;-69
2021/01/25 00:20:34;;;;;;;2.80;2.60;;;1.30;99.90;;;;;;492685;241;27421;-70
2021/01/25 00:22:35;;;;;;;3.28;2.50;;;1.30;99.90;;;;;;492852;241;27413;-69
2021/01/25 00:24:37;;;;;;;2.92;2.67;;;1.30;99.90;;;;;;492893;241;27521;-69
2021/01/25 00:26:38;;;;;;;3.53;3.22;;;1.30;99.90;;;;;;492861;241;27373;-69
2021/01/25 00:28:39;;;;;;;4.68;3.20;;;1.30;99.90;;;;;;492889;241;27510;-69
2021/01/25 00:30:40;;;;;;;3.12;2.83;;;1.30;99.90;;;;;;492819;241;27428;-70
2021/01/25 00:32:42;;;;;;;3.62;2.80;;;1.20;99.90;;;;;;492897;241;27508;-69
2021/01/25 00:34:44;;;;;;;3.42;2.92;;;1.20;99.90;;;;;;492936;241;27532;-69
2021/01/25 00:36:44;;;;;;;4.35;2.95;;;1.30;99.90;;;;;;492847;241;27843;-69
2021/01/25 00:38:45;;;;;;;3.85;2.65;;;1.30;99.90;;;;;;492894;241;27516;-69
2021/01/25 00:40:47;;;;;;;3.10;2.80;;;1.30;99.90;;;;;;492832;241;27505;-70
2021/01/25 00:42:48;;;;;;;3.45;2.75;;;1.30;99.90;;;;;;492880;241;27904;-69
2021/01/25 00:44:49;;;;;;;3.00;2.80;;;1.30;99.90;;;;;;492940;241;27866;-70
2021/01/25 00:46:50;;;;;;;3.85;3.03;;;1.30;99.90;;;;;;492971;241;28054;-69
2021/01/25 00:48:52;;;;;;;4.05;3.30;;;1.30;99.90;;;;;;492976;241;27504;-70
2021/01/25 00:50:53;;;;;;;5.97;3.33;;;1.30;99.90;;;;;;492987;241;27421;-69
2021/01/25 00:52:54;;;;;;;3.85;3.05;;;1.30;99.90;;;;;;493013;241;27495;-69
2021/01/25 00:54:55;;;;;;;5.95;3.25;;;1.30;99.90;;;;;;492988;241;27417;-70
2021/01/25 00:56:57;;;;;;;3.55;2.72;;;1.30;99.90;;;;;;492902;241;27500;-71
2021/01/25 00:58:58;;;;;;;3.40;3.10;;;1.30;99.90;;;;;;492911;241;27499;-69
2021/01/25 01:00:59;;;;;;;3.00;2.75;;;1.30;99.90;;;;;;492846;241;27385;-69
2021/01/25 01:03:01;;;;;;;3.00;2.80;;;1.40;99.90;;;;;;492896;241;27421;-69
2021/01/25 01:05:02;;;;;;;3.65;3.17;;;1.40;99.90;;;;;;492929;241;27775;-70
2021/01/25 01:07:03;;;;;;;6.18;3.47;;;1.40;99.90;;;;;;492902;241;27433;-70
2021/01/25 01:09:04;;;;;;;3.80;3.20;;;1.40;99.90;;;;;;492919;241;27422;-70
2021/01/25 01:11:05;;;;;;;4.25;3.37;;;1.40;99.90;;;;;;492856;241;27916;-69
2021/01/25 01:13:07;;;;;;;3.70;3.40;;;1.40;99.90;;;;;;492886;241;28719;-69
2021/01/25 01:15:08;;;;;;;3.42;3.12;;;1.40;99.90;;;;;;492938;241;27907;-69
2021/01/25 01:17:09;;;;;;;4.78;3.50;;;1.40;99.90;;;;;;492896;240;27989;-69
2021/01/25 01:19:10;;;;;;;4.60;3.60;;;1.50;99.90;;;;;;492908;241;27406;-70
2021/01/25 01:21:12;;;;;;;3.78;2.85;;;1.50;99.90;;;;;;492855;241;27417;-69
2021/01/25 01:23:13;;;;;;;4.10;3.10;;;1.40;99.90;;;;;;492958;241;27437;-70
2021/01/25 01:25:14;;;;;;;3.60;3.30;;;1.40;99.90;;;;;;492990;241;27406;-69
2021/01/25 01:27:15;;;;;;;3.83;3.28;;;1.40;99.90;;;;;;492963;241;27451;-69
2021/01/25 01:29:17;;;;;;;4.40;3.55;;;1.40;99.90;;;;;;492754;241;27734;-69
2021/01/25 01:31:18;;;;;;;4.05;3.35;;;1.40;99.90;;;;;;492837;241;27417;-69
2021/01/25 01:33:19;;;;;;;3.20;3.00;;;1.40;99.90;;;;;;492930;241;27498;-70
2021/01/25 01:35:20;;;;;;;3.65;3.35;;;1.40;99.90;;;;;;492900;241;27386;-69
2021/01/25 01:37:22;;;;;;;4.00;3.60;;;1.40;99.90;;;;;;492894;241;27422;-70
2021/01/25 01:39:23;;;;;;;5.50;3.60;;;1.40;99.90;;;;;;492941;241;28046;-70
2021/01/25 01:41:24;;;;;;;3.75;3.10;;;1.50;99.90;;;;;;492956;241;27902;-69
2021/01/25 01:43:25;;;;;;;3.25;3.05;;;1.40;99.90;;;;;;493050;241;28006;-71
2021/01/25 01:45:27;;;;;;;3.17;2.85;;;1.40;99.90;;;;;;493065;241;27833;-69
2021/01/25 01:47:28;;;;;;;3.67;3.17;;;1.40;99.90;;;;;;493086;241;27410;-69
2021/01/25 01:49:29;;;;;;;4.03;3.72;;;1.40;99.90;;;;;;493104;241;27504;-69
2021/01/25 01:51:30;;;;;;;3.58;3.08;;;1.40;99.90;;;;;;493057;240;27379;-69
2021/01/25 01:53:32;;;;;;;3.45;3.15;;;1.40;99.90;;;;;;493093;241;27414;-69
2021/01/25 01:55:33;;;;;;;5.65;3.12;;;1.40;99.90;;;;;;493070;241;27373;-69
2021/01/25 01:57:34;;;;;;;3.58;3.22;;;1.40;99.90;;;;;;492969;241;27429;-69
2021/01/25 01:59:36;;;;;;;4.82;3.17;;;1.50;99.90;;;;;;492963;241;27481;-71
2021/01/25 02:01:37;;;;;;;3.22;3.03;;;1.50;99.90;;;;;;492888;241;27393;-69
2021/01/25 02:03:38;;;;;;;3.78;3.03;;;1.50;99.90;;;;;;492923;241;27595;-69
2021/01/25 02:05:39;;;;;;;4.85;3.45;;;1.50;99.90;;;;;;492802;241;27378;-69
2021/01/25 02:07:40;;;;;;;4.05;3.65;;;1.50;99.90;;;;;;492861;241;27910;-69
2021/01/25 02:09:42;;;;;;;4.15;3.75;;;1.50;99.90;;;;;;492864;241;27922;-70
2021/01/25 02:11:43;;;;;;;3.40;3.10;;;1.50;99.90;;;;;;492805;241;27953;-68
2021/01/25 02:13:44;;;;;;;3.53;3.22;;;1.50;99.90;;;;;;492782;241;28132;-69
2021/01/25 02:15:45;;;;;;;5.37;3.33;;;1.50;99.90;;;;;;492867;241;27456;-69
2021/01/25 02:17:47;;;;;;;3.83;3.10;;;1.50;99.90;;;;;;492882;241;27414;-70
2021/01/25 02:19:48;;;;;;;4.50;3.60;;;1.50;99.90;;;;;;492907;241;27412;-69
2021/01/25 02:21:49;;;;;;;5.82;3.65;;;1.50;99.90;;;;;;492966;241;27525;-69
2021/01/25 02:23:50;;;;;;;5.60;4.10;;;1.50;99.90;;;;;;493000;241;27514;-69
2021/01/25 02:25:52;;;;;;;3.17;2.92;;;1.50;99.90;;;;;;493023;241;27844;-69
2021/01/25 02:27:53;;;;;;;4.65;3.15;;;1.50;99.90;;;;;;492935;241;27412;-70
2021/01/25 02:29:54;;;;;;;4.45;3.20;;;1.50;99.90;;;;;;492899;241;27436;-70
2021/01/25 02:31:55;;;;;;;3.78;3.47;;;1.50;99.90;;;;;;492766;241;27448;-69
2021/01/25 02:33:57;;;;;;;4.07;3.15;;;1.50;99.90;;;;;;492852;241;27405;-70
2021/01/25 02:35:58;;;;;;;4.12;3.33;;;1.50;99.90;;;;;;492853;241;27898;-70
2021/01/25 02:37:59;;;;;;;3.85;3.17;;;1.50;99.90;;;;;;492883;241;27997;-70
2021/01/25 02:40:00;;;;;;;3.80;3.40;;;1.40;99.90;;;;;;492839;241;27968;-69
2021/01/25 02:42:02;;;;;;;6.40;2.90;;;1.50;99.90;;;;;;492849;241;27840;-69
2021/01/25 02:44:03;;;;;;;5.12;3.25;;;1.50;99.90;;;;;;492872;240;27387;-69
2021/01/25 02:46:05;;;;;;;6.00;3.80;;;1.50;99.90;;;;;;492872;241;27628;-69
2021/01/25 02:48:05;;;;;;;4.15;3.75;;;1.50;99.90;;;;;;492844;241;27400;-71
2021/01/25 02:50:07;;;;;;;4.40;3.47;;;1.60;99.90;;;;;;492821;241;27509;-69
2021/01/25 02:52:08;;;;;;;3.60;3.30;;;1.60;99.90;;;;;;492880;241;27881;-69
2021/01/25 02:54:09;;;;;;;4.25;3.85;;;1.50;99.90;;;;;;492897;241;27373;-69
2021/01/25 02:56:10;;;;;;;4.35;3.42;;;1.50;99.90;;;;;;492898;241;27410;-69
2021/01/25 02:58:12;;;;;;;3.60;3.30;;;1.50;99.90;;;;;;492871;241;27409;-70
2021/01/25 03:00:13;;;;;;;4.00;3.60;;;1.50;99.90;;;;;;492882;241;27378;-69
2021/01/25 03:02:14;;;;;;;4.43;3.67;;;1.60;99.90;;;;;;492933;241;27417;-70
2021/01/25 03:04:15;;;;;;;4.12;3.72;;;1.50;99.90;;;;;;492910;241;27833;-69
2021/01/25 03:06:17;;;;;;;6.45;4.87;;;1.60;99.90;;;;;;492925;240;27976;-69
2021/01/25 03:08:18;;;;;;;7.32;4.62;;;1.50;99.90;;;;;;492998;241;29040;-69
2021/01/25 03:10:19;;;;;;;7.70;4.60;;;1.50;99.90;;;;;;493037;241;27877;-69
2021/01/25 03:12:20;;;;;;;4.00;3.62;;;1.50;99.90;;;;;;492964;241;27414;-71
2021/01/25 03:14:22;;;;;;;4.47;3.67;;;1.60;99.90;;;;;;492936;241;27449;-69
2021/01/25 03:16:23;;;;;;;5.85;4.22;;;1.60;99.90;;;;;;492916;241;27523;-70
2021/01/25 03:18:24;;;;;;;5.15;4.20;;;1.60;99.90;;;;;;492915;241;27620;-69
2021/01/25 03:20:25;;;;;;;6.40;5.00;;;1.50;99.90;;;;;;492826;240;27409;-69
2021/01/25 03:22:27;;;;;;;5.95;5.30;;;1.60;99.90;;;;;;492909;241;27842;-69
2021/01/25 03:24:28;;;;;;;9.25;6.15;;;1.60;99.90;;;;;;492868;241;27478;-69
2021/01/25 03:26:29;;;;;;;4.75;4.32;;;1.60;99.90;;;;;;492876;241;27516;-70
2021/01/25 03:28:30;;;;;;;8.15;4.80;;;1.60;99.90;;;;;;492874;241;27417;-70
2021/01/25 03:30:32;;;;;;;6.95;5.37;;;1.60;99.90;;;;;;492836;241;27441;-69
2021/01/25 03:32:33;;;;;;;6.32;5.50;;;1.60;99.90;;;;;;492926;241;28024;-70
2021/01/25 03:34:34;;;;;;;5.30;4.65;;;1.60;99.90;;;;;;492910;241;27836;-69
2021/01/25 03:36:35;;;;;;;6.68;5.20;;;1.60;99.90;;;;;;492886;241;27883;-70
2021/01/25 03:38:37;;;;;;;4.60;4.20;;;1.60;99.90;;;;;;492878;241;27983;-70
2021/01/25 03:40:38;;;;;;;4.50;4.10;;;1.60;99.90;;;;;;492801;241;27523;-69
2021/01/25 03:42:39;;;;;;;4.72;4.20;;;1.60;99.90;;;;;;492879;241;27405;-69
2021/01/25 03:44:40;;;;;;;6.87;4.97;;;1.70;99.90;;;;;;492889;241;27481;-69
2021/01/25 03:46:45;;;;;;;5.65;4.12;;;1.60;99.90;;;;;;492899;241;27441;-70
2021/01/25 03:48:43;;;;;;;4.43;4.03;;;1.60;99.90;;;;;;492979;241;27441;-70
2021/01/25 03:50:44;;;;;;;4.47;4.03;;;1.60;99.90;;;;;;493222;241;27419;-69
2021/01/25 03:52:45;;;;;;;4.65;3.92;;;1.60;99.90;;;;;;493277;241;27374;-69
2021/01/25 03:54:47;;;;;;;4.28;3.83;;;1.60;99.90;;;;;;493277;241;27370;-70
2021/01/25 03:56:48;;;;;;;4.85;4.32;;;1.60;99.90;;;;;;493259;241;27372;-69
2021/01/25 03:58:49;;;;;;;7.47;4.40;;;1.60;99.90;;;;;;493273;241;27587;-69
2021/01/25 04:00:50;;;;;;;4.95;3.92;;;1.60;99.90;;;;;;492992;241;27873;-69
2021/01/25 04:02:52;;;;;;;4.80;4.00;;;1.60;99.90;;;;;;492855;241;27934;-69
2021/01/25 04:04:53;;;;;;;4.55;4.05;;;1.60;99.90;;;;;;492855;241;27882;-70
2021/01/25 04:06:54;;;;;;;4.87;4.40;;;1.60;99.90;;;;;;492919;241;27849;-69
2021/01/25 04:08:55;;;;;;;4.87;4.37;;;1.60;99.90;;;;;;492895;241;27591;-69
2021/01/25 04:10:57;;;;;;;5.60;3.92;;;1.60;99.90;;;;;;492842;241;27401;-69
2021/01/25 04:12:58;;;;;;;4.97;4.47;;;1.50;99.90;;;;;;492916;241;27452;-69
2021/01/25 04:14:59;;;;;;;4.53;4.12;;;1.50;99.90;;;;;;492889;241;27441;-70
2021/01/25 04:17:00;;;;;;;5.30;4.65;;;1.50;99.90;;;;;;492931;241;27445;-69
2021/01/25 04:19:02;;;;;;;5.00;4.50;;;1.50;99.90;;;;;;492975;241;27500;-69
2021/01/25 04:21:03;;;;;;;10.45;4.87;;;1.50;99.90;;;;;;492906;241;27441;-70
2021/01/25 04:23:04;;;;;;;6.53;4.30;;;1.50;99.90;;;;;;492938;241;27476;-68
2021/01/25 04:25:05;;;;;;;5.18;4.43;;;1.50;99.90;;;;;;493016;241;27493;-70
2021/01/25 04:27:16;;;;;;;5.35;4.60;;;1.50;99.90;;;;;;493059;241;27540;-69
2021/01/25 04:29:08;;;;;;;4.85;4.40;;;1.50;99.90;;;;;;492381;241;27862;-69
2021/01/25 04:31:09;;;;;;;5.28;4.80;;;1.50;99.90;;;;;;493004;241;28026;-72
2021/01/25 04:33:10;;;;;;;6.90;4.32;;;1.50;99.90;;;;;;493065;241;27811;-69
2021/01/25 04:35:12;;;;;;;6.32;4.85;;;1.50;99.90;;;;;;493045;241;27951;-69
2021/01/25 04:37:13;;;;;;;6.10;5.35;;;1.50;99.90;;;;;;493012;241;27449;-69
2021/01/25 04:39:14;;;;;;;4.70;4.20;;;1.50;99.90;;;;;;492991;241;27501;-69
2021/01/25 04:41:15;;;;;;;5.32;4.80;;;1.50;99.90;;;;;;492886;241;27417;-71
2021/01/25 04:43:17;;;;;;;4.93;4.50;;;1.50;99.90;;;;;;492910;241;27457;-69
2021/01/25 04:45:18;;;;;;;5.20;4.68;;;1.50;99.90;;;;;;492881;241;27449;-69
2021/01/25 04:47:19;;;;;;;5.10;4.60;;;1.50;99.90;;;;;;492837;241;27591;-68
2021/01/25 04:49:20;;;;;;;7.35;5.05;;;1.60;99.90;;;;;;492898;241;27415;-69
2021/01/25 04:51:22;;;;;;;8.43;5.32;;;1.60;99.90;;;;;;492811;241;27512;-70
2021/01/25 04:53:23;;;;;;;7.93;5.47;;;1.60;99.90;;;;;;492833;241;27397;-70
2021/01/25 04:55:24;;;;;;;9.80;6.20;;;1.60;99.90;;;;;;492879;241;27419;-70
2021/01/25 04:57:25;;;;;;;8.80;6.72;;;1.60;99.90;;;;;;492858;241;27969;-70
2021/01/25 04:59:27;;;;;;;7.97;5.53;;;1.60;99.90;;;;;;492868;241;28006;-69
2021/01/25 05:01:28;;;;;;;8.80;5.90;;;1.60;99.90;;;;;;492795;241;28078;-69
2021/01/25 05:03:29;;;;;;;7.18;5.37;;;1.60;99.90;;;;;;492839;241;28078;-70
2021/01/25 05:05:30;;;;;;;6.97;4.82;;;1.60;99.90;;;;;;492867;241;27410;-69
2021/01/25 05:07:32;;;;;;;7.62;5.65;;;1.60;99.90;;;;;;492879;241;27619;-71
2021/01/25 05:09:33;;;;;;;11.30;6.57;;;1.60;99.90;;;;;;492889;241;27405;-70
2021/01/25 05:11:34;;;;;;;10.48;7.22;;;1.60;99.90;;;;;;492829;241;27516;-70
2021/01/25 05:13:35;;;;;;;10.25;7.10;;;1.60;99.90;;;;;;492856;241;27584;-70
2021/01/25 05:15:37;;;;;;;9.32;6.80;;;1.60;99.90;;;;;;492934;241;27461;-71
2021/01/25 05:17:38;;;;;;;9.98;6.68;;;1.60;99.90;;;;;;493021;241;27373;-71
2021/01/25 05:19:39;;;;;;;7.80;6.53;;;1.60;99.90;;;;;;493112;241;27501;-70
2021/01/25 05:21:41;;;;;;;6.70;6.00;;;1.60;99.90;;;;;;493000;241;27501;-70
2021/01/25 05:23:42;;;;;;;4.90;4.45;;;1.60;99.90;;;;;;493060;241;28633;-70
2021/01/25 05:25:43;;;;;;;4.70;4.12;;;1.60;99.90;;;;;;492995;241;28044;-70
2021/01/25 05:27:44;;;;;;;6.85;4.32;;;1.50;99.90;;;;;;492916;241;27968;-70
2021/01/25 05:29:45;;;;;;;5.43;4.53;;;1.50;99.90;;;;;;492870;241;28024;-70
2021/01/25 05:31:47;;;;;;;5.20;4.75;;;1.60;99.90;;;;;;492794;241;27401;-70
2021/01/25 05:33:48;;;;;;;4.85;4.45;;;1.60;99.90;;;;;;492818;241;27513;-71
2021/01/25 05:35:49;;;;;;;5.03;4.47;;;1.60;99.90;;;;;;492906;241;27484;-69
2021/01/25 05:37:50;;;;;;;8.20;5.43;;;1.60;99.90;;;;;;492866;241;27588;-70
2021/01/25 05:39:52;;;;;;;5.55;4.87;;;1.60;99.90;;;;;;492847;241;27414;-70
2021/01/25 05:41:53;;;;;;;7.15;5.30;;;1.70;99.90;;;;;;492835;241;27417;-69
2021/01/25 05:43:54;;;;;;;4.72;4.30;;;1.60;99.90;;;;;;492882;241;27448;-71
2021/01/25 05:45:55;;;;;;;6.18;4.75;;;1.60;99.90;;;;;;492907;241;27505;-71
2021/01/25 05:47:57;;;;;;;8.05;5.05;;;1.50;99.90;;;;;;492888;241;27449;-69
2021/01/25 05:49:58;;;;;;;9.10;4.80;;;1.50;99.90;;;;;;492866;241;27415;-70
2021/01/25 05:51:59;;;;;;;9.13;5.75;;;1.60;99.90;;;;;;492894;241;27868;-69
2021/01/25 05:54:01;;;;;;;7.72;5.28;;;1.60;99.90;;;;;;493020;241;27889;-71
2021/01/25 05:56:02;;;;;;;15.27;5.95;;;1.60;99.90;;;;;;493039;241;27830;-69
2021/01/25 05:58:03;;;;;;;8.70;5.05;;;1.60;99.90;;;;;;493072;241;27417;-70
2021/01/25 06:00:05;;;;;;;6.87;5.22;;;1.60;99.90;;;;;;493043;241;27401;-72
2021/01/25 06:02:05;;;;;;;5.53;4.85;;;1.60;99.90;;;;;;493005;241;27438;-69
2021/01/25 06:04:07;;;;;;;5.85;4.90;;;1.60;99.90;;;;;;492993;241;27413;-69
2021/01/25 06:06:08;;;;;;;7.03;4.55;;;1.60;99.90;;;;;;492961;241;27381;-69
2021/01/25 06:08:09;;;;;;;6.65;4.68;;;1.60;99.90;;;;;;492886;241;27500;-70
2021/01/25 06:10:10;;;;;;;6.03;5.15;;;1.70;99.90;;;;;;492843;241;27425;-70
2021/01/25 06:12:12;;;;;;;6.07;4.50;;;1.70;99.90;;;;;;492928;241;27378;-70
2021/01/25 06:14:13;;;;;;;5.20;4.62;;;1.70;99.90;;;;;;492911;241;27424;-70
2021/01/25 06:16:14;;;;;;;4.65;4.25;;;1.70;99.90;;;;;;492909;241;27812;-69
2021/01/25 06:18:15;;;;;;;5.45;4.37;;;1.70;99.90;;;;;;492872;241;27984;-70
2021/01/25 06:20:17;;;;;;;6.82;4.75;;;1.70;99.90;;;;;;492852;241;29831;-71
2021/01/25 06:22:18;;;;;;;7.80;4.68;;;1.70;99.90;;;;;;492922;241;27830;-70
2021/01/25 06:24:19;;;;;;;5.00;4.47;;;1.60;99.90;;;;;;492898;241;27409;-70
2021/01/25 06:26:20;;;;;;;5.15;4.65;;;1.70;99.90;;;;;;492809;241;27491;-69
2021/01/25 06:28:22;;;;;;;4.32;3.92;;;1.70;99.90;;;;;;492863;241;27530;-70
2021/01/25 06:30:23;;;;;;;5.28;4.78;;;1.70;99.90;;;;;;492815;241;27497;-70
2021/01/25 06:32:24;;;;;;;5.00;4.55;;;1.70;99.90;;;;;;492919;241;27378;-70
2021/01/25 06:34:25;;;;;;;5.00;4.60;;;1.70;99.90;;;;;;492905;241;27453;-70
2021/01/25 06:36:27;;;;;;;5.43;4.65;;;1.70;99.90;;;;;;492888;241;27754;-70
2021/01/25 06:38:28;;;;;;;5.75;4.30;;;1.70;99.90;;;;;;492839;241;27491;-70
2021/01/25 06:40:29;;;;;;;4.90;4.37;;;1.60;99.90;;;;;;492862;241;27452;-70
2021/01/25 06:42:31;;;;;;;4.40;4.00;;;1.70;99.90;;;;;;492902;241;27564;-69
2021/01/25 06:44:32;;;;;;;4.57;4.18;;;1.70;99.90;;;;;;492894;241;27425;-70
2021/01/25 06:46:33;;;;;;;4.82;4.32;;;1.70;99.90;;;;;;492896;241;27590;-69
2021/01/25 06:48:34;;;;;;;4.60;4.20;;;1.70;99.90;;;;;;492888;241;27497;-69
2021/01/25 06:50:36;;;;;;;5.07;4.57;;;1.70;99.90;;;;;;492873;241;27430;-70
2021/01/25 06:52:37;;;;;;;7.70;4.85;;;1.70;99.90;;;;;;492891;241;28795;-69
2021/01/25 06:54:38;;;;;;;5.20;4.70;;;1.70;99.90;;;;;;492903;241;28265;-69
2021/01/25 06:56:39;;;;;;;5.55;5.05;;;1.70;99.90;;;;;;492916;241;27900;-70
2021/01/25 06:58:41;;;;;;;5.07;4.57;;;1.70;99.90;;;;;;492891;241;27900;-70
2021/01/25 07:00:42;;;;;;;5.50;5.00;;;1.70;99.90;;;;;;492834;241;27417;-69
2021/01/25 07:02:43;;;;;;;5.20;4.80;;;1.70;99.90;;;;;;492905;241;27411;-71
2021/01/25 07:04:45;;;;;;;4.72;4.30;;;1.70;99.90;;;;;;492858;241;27537;-70
2021/01/25 07:06:46;;;;;;;4.70;4.30;;;1.80;99.90;;;;;;492798;241;27497;-70
2021/01/25 07:08:47;;;;;;;4.70;4.30;;;1.80;99.90;;;;;;492790;241;27520;-71
2021/01/25 07:10:48;;;;;;;5.55;4.93;;;1.80;99.90;;;;;;492777;241;27511;-70
2021/01/25 07:12:49;;;;;;;5.82;5.20;;;1.80;99.90;;;;;;492815;241;27445;-71
2021/01/25 07:14:51;;;;;;;5.45;4.95;;;1.70;99.90;;;;;;492834;241;27373;-70
2021/01/25 07:16:52;;;;;;;7.90;5.85;;;1.70;99.90;;;;;;492827;241;27433;-69
2021/01/25 07:18:53;;;;;;;5.30;4.80;;;1.70;99.90;;;;;;492823;241;27425;-71
2021/01/25 07:20:55;;;;;;;6.00;5.40;;;1.70;99.90;;;;;;492922;241;27426;-70
2021/01/25 07:22:57;;;;;;;6.32;5.72;;;1.70;99.90;;;;;;492949;241;27838;-69
2021/01/25 07:24:58;;;;;;;6.35;5.75;;;1.70;99.90;;;;;;492822;241;27888;-69
2021/01/25 07:26:59;;;;;;;6.12;5.50;;;1.80;99.90;;;;;;492958;241;28326;-71
2021/01/25 07:29:00;;;;;;;6.15;5.55;;;1.80;99.90;;;;;;493055;241;27931;-70
2021/01/25 07:31:02;;;;;;;8.98;8.18;;;1.70;99.90;;;;;;493029;241;27504;-69
2021/01/25 07:33:03;;;;;;;6.70;5.97;;;1.70;99.90;;;;;;493057;241;27417;-70
2021/01/25 07:35:04;;;;;;;6.72;5.70;;;1.70;99.90;;;;;;493059;241;27405;-70
2021/01/25 07:37:05;;;;;;;6.05;5.55;;;1.70;99.90;;;;;;493066;241;27437;-72
2021/01/25 07:39:07;;;;;;;6.93;6.22;;;1.70;99.90;;;;;;493054;241;27359;-69
2021/01/25 07:41:09;;;;;;;6.68;6.03;;;1.70;99.90;;;;;;493003;241;27429;-70
2021/01/25 07:43:09;;;;;;;6.30;5.70;;;1.70;99.90;;;;;;493025;241;27505;-69
2021/01/25 07:45:10;;;;;;;6.22;5.62;;;1.70;99.90;;;;;;492991;241;27410;-69
2021/01/25 07:47:12;;;;;;;6.97;6.28;;;1.70;99.90;;;;;;492891;241;27409;-70
2021/01/25 07:49:13;;;;;;;8.32;6.30;;;1.70;99.90;;;;;;492871;241;27528;-69
2021/01/25 07:51:14;;;;;;;6.75;6.07;;;1.60;99.90;;;;;;492813;241;27949;-71
2021/01/25 07:53:15;;;;;;;6.82;5.90;;;1.70;99.90;;;;;;492899;241;28440;-69
2021/01/25 07:55:17;;;;;;;6.68;5.90;;;1.60;99.90;;;;;;492872;241;27928;-69
2021/01/25 07:57:18;;;;;;;6.68;6.03;;;1.60;99.90;;;;;;492842;241;27948;-70
2021/01/25 07:59:19;;;;;;;7.00;6.30;;;1.60;99.90;;;;;;492835;241;27528;-69
2021/01/25 08:01:20;;;;;;;5.80;5.25;;;1.70;99.90;;;;;;492813;241;27418;-70
2021/01/25 08:03:22;;;;;;;6.45;5.53;;;1.70;99.90;;;;;;492885;241;27413;-70
2021/01/25 08:05:23;;;;;;;6.80;6.10;;;1.70;99.90;;;;;;492877;241;27500;-71
2021/01/25 08:07:24;;;;;;;7.03;6.30;;;1.70;99.90;;;;;;492851;241;27516;-70
2021/01/25 08:09:25;;;;;;;6.78;5.75;;;1.70;99.90;;;;;;492837;241;27521;-70
2021/01/25 08:11:27;;;;;;;6.20;5.60;;;1.70;99.90;;;;;;492849;241;27469;-71
2021/01/25 08:13:28;;;;;;;6.40;5.80;;;1.70;99.90;;;;;;492901;241;27433;-70
2021/01/25 08:15:29;;;;;;;6.55;5.60;;;1.70;99.90;;;;;;492893;241;27536;-70
2021/01/25 08:17:30;;;;;;;6.32;5.47;;;1.70;99.90;;;;;;492966;241;27521;-70
2021/01/25 08:19:32;;;;;;;5.82;5.25;;;1.70;99.90;;;;;;492914;241;28020;-70
2021/01/25 08:21:33;;;;;;;6.05;5.45;;;1.70;99.90;;;;;;492688;241;27864;-69
2021/01/25 08:23:34;;;;;;;5.85;5.35;;;1.60;99.90;;;;;;492821;241;27888;-70
2021/01/25 08:25:35;;;;;;;6.57;5.80;;;1.60;99.90;;;;;;492884;241;28061;-71
2021/01/25 08:27:37;;;;;;;6.47;5.85;;;1.60;99.90;;;;;;492848;241;27600;-69
2021/01/25 08:29:38;;;;;;;6.43;5.72;;;1.60;99.90;;;;;;492867;241;27420;-69
2021/01/25 08:31:39;;;;;;;5.80;5.20;;;1.70;99.90;;;;;;492824;241;27471;-70
2021/01/25 08:33:40;;;;;;;5.75;5.25;;;1.70;99.90;;;;;;492884;241;27505;-70
2021/01/25 08:35:42;;;;;;;5.82;5.15;;;1.70;99.90;;;;;;492863;241;27404;-70
2021/01/25 08:37:43;;;;;;;5.55;5.05;;;1.70;99.90;;;;;;492883;241;27429;-69
2021/01/25 08:39:44;;;;;;;5.32;4.85;;;1.70;99.90;;;;;;492916;241;27767;-72
2021/01/25 08:41:46;;;;;;;6.80;5.30;;;1.70;99.90;;;;;;492505;241;27414;-70
2021/01/25 08:43:47;;;;;;;5.45;4.95;;;1.80;99.90;;;;;;492922;241;27423;-69
2021/01/25 08:45:48;;;;;;;5.28;4.78;;;1.70;99.90;;;;;;493002;241;27465;-70
2021/01/25 08:47:49;;;;;;;6.18;5.57;;;1.80;99.90;;;;;;493019;241;27414;-69
2021/01/25 08:49:51;;;;;;;5.32;4.82;;;1.80;99.90;;;;;;492982;241;27425;-71
2021/01/25 08:51:52;;;;;;;5.55;4.95;;;1.80;99.90;;;;;;492898;241;27373;-69
2021/01/25 08:53:53;;;;;;;5.78;5.12;;;1.80;99.90;;;;;;492958;241;27519;-69
2021/01/25 08:55:57;;;;;;;4.97;4.57;;;1.90;99.90;;;;;;492894;241;27500;-70
2021/01/25 08:57:56;;;;;;;5.25;4.75;;;1.80;99.90;;;;;;492778;241;27413;-69
2021/01/25 08:59:57;;;;;;;5.07;4.57;;;1.70;99.90;;;;;;492891;241;27913;-69
2021/01/25 09:01:58;;;;;;;5.35;4.85;;;1.80;99.90;;;;;;492888;241;27831;-68
2021/01/25 09:04:00;;;;;;;6.82;6.12;;;1.70;99.90;;;;;;492917;241;27907;-68
2021/01/25 09:06:02;;;;;;;6.22;5.40;;;1.70;99.90;;;;;;492863;241;27555;-69
2021/01/25 09:08:02;;;;;;;6.22;5.62;;;1.60;99.90;;;;;;492861;241;27435;-70
2021/01/25 09:10:03;;;;;;;6.35;5.55;;;1.60;99.90;;;;;;492919;241;27520;-72
2021/01/25 09:12:06;;;;;;;6.20;5.28;;;1.60;99.90;;;;;;492931;241;27378;-71
2021/01/25 09:14:06;;;;;;;6.10;5.50;;;1.60;99.90;;;;;;492841;241;27511;-71
2021/01/25 09:16:07;;;;;;;9.88;5.75;;;1.70;99.90;;;;;;492872;241;27512;-72
2021/01/25 09:18:11;;;;;;;6.30;5.57;;;1.70;99.90;;;;;;492852;241;27440;-70
2021/01/25 09:20:09;;;;;;;6.65;5.93;;;1.70;99.90;;;;;;492614;241;27441;-71
2021/01/25 09:22:11;;;;;;;6.40;5.80;;;1.70;99.90;;;;;;492911;241;27402;-73
2021/01/25 09:24:12;;;;;;;6.05;5.45;;;1.70;99.90;;;;;;492899;241;27503;-70
2021/01/25 09:26:13;;;;;;;9.23;6.45;;;1.70;99.90;;;;;;492909;241;27437;-71
2021/01/25 09:28:14;;;;;;;8.57;5.95;;;1.70;99.90;;;;;;492888;241;27882;-72
2021/01/25 09:30:16;;;;;;;6.10;5.50;;;1.80;99.90;;;;;;492862;241;28222;-71
2021/01/25 09:32:17;;;;;;;9.70;6.47;;;1.80;99.90;;;;;;492987;241;27999;-71
2021/01/25 09:34:18;;;;;;;6.93;5.90;;;1.90;99.90;;;;;;493008;241;28585;-70
2021/01/25 09:36:19;;;;;;;6.50;5.90;;;1.90;99.90;;;;;;492909;241;27417;-71
2021/01/25 09:38:21;;;;;;;7.57;6.00;;;1.90;99.90;;;;;;492892;241;27417;-72
2021/01/25 09:40:22;;;;;;;6.97;6.22;;;2.00;99.90;;;;;;492849;241;27432;-70
2021/01/25 09:42:23;;;;;;;8.45;6.60;;;2.10;99.90;;;;;;492942;241;27426;-69
2021/01/25 09:44:24;;;;;;;7.62;6.57;;;2.20;99.90;;;;;;492923;241;27449;-68
2021/01/25 09:46:26;;;;;;;6.80;5.97;;;2.20;99.90;;;;;;492908;241;27429;-69
2021/01/25 09:48:27;;;;;;;6.45;5.85;;;2.30;99.90;;;;;;492912;241;27413;-69
2021/01/25 09:50:28;;;;;;;7.87;6.53;;;2.30;99.90;;;;;;492848;241;27382;-68
2021/01/25 09:52:29;;;;;;;8.07;6.30;;;2.30;99.90;;;;;;492935;241;27479;-69
2021/01/25 09:54:31;;;;;;;7.10;5.90;;;2.40;99.90;;;;;;492933;241;27365;-68
2021/01/25 09:56:32;;;;;;;7.37;6.20;;;2.50;99.90;;;;;;492929;241;27874;-68
2021/01/25 09:58:35;;;;;;;7.40;6.60;;;2.50;99.90;;;;;;492944;241;27963;-70
2021/01/25 10:00:34;;;;;;;9.07;7.03;;;2.50;99.90;;;;;;492840;241;27857;-68
2021/01/25 10:02:36;;;;;;;6.72;6.03;;;2.70;99.90;;;;;;493041;241;27888;-68
2021/01/25 10:04:37;;;;;;;6.87;5.95;;;2.70;99.90;;;;;;493043;241;27395;-71
2021/01/25 10:06:38;;;;;;;8.95;6.37;;;2.80;99.90;;;;;;493069;241;27402;-71
2021/01/25 10:08:39;;;;;;;7.47;6.60;;;2.90;99.90;;;;;;493103;241;27409;-73
2021/01/25 10:10:41;;;;;;;11.55;7.28;;;2.90;99.90;;;;;;493017;241;27383;-68
2021/01/25 10:12:42;;;;;;;7.65;6.72;;;3.00;99.90;;;;;;493081;241;27450;-68
2021/01/25 10:14:43;;;;;;;7.28;6.62;;;3.10;99.90;;;;;;488763;235;27588;-68
2021/01/25 10:16:44;;;;;;;6.97;6.12;;;3.10;99.90;;;;;;470324;253;27504;-68
2021/01/25 10:18:46;;;;;;;6.60;6.00;;;3.20;99.90;;;;;;484075;245;27421;-70
2021/01/25 10:20:47;;;;;;;9.23;6.72;;;3.10;99.90;;;;;;470007;253;27449;-70
2021/01/25 10:22:48;;;;;;;6.30;5.70;;;3.10;99.90;;;;;;484521;245;27901;-70
2021/01/25 10:24:49;;;;;;;7.05;6.35;;;3.20;99.90;;;;;;474042;241;28213;-71
2021/01/25 10:26:51;;;;;;;7.47;6.45;;;3.10;99.90;;;;;;482856;246;28088;-70
2021/01/25 10:28:52;;;;;;;7.07;6.00;;;3.00;99.90;;;;;;490726;242;27877;-70
2021/01/25 10:30:53;;;;;;;8.50;6.25;;;2.90;99.90;;;;;;482894;246;27548;-70
2021/01/25 10:32:54;;;;;;;6.95;6.25;;;2.90;99.90;;;;;;490728;242;27383;-72
2021/01/25 10:34:56;;;;;;;7.85;6.50;;;2.90;99.90;;;;;;482877;243;27515;-71
2021/01/25 10:36:57;;;;;;;8.35;6.37;;;2.80;99.90;;;;;;490750;242;27411;-70
2021/01/25 10:38:58;;;;;;;7.45;6.70;;;2.80;99.90;;;;;;482898;246;27476;-70